Stow, Maine
Current Conditions -  °F | °C
As of 2:54 PM on Thursday 29 Jan 2015 (Local Time) from KIZG Reporting Station
Clear Clear  
Wind Chill: 30°   Ceiling: Unl
Heat Index: 34°   Visibility: 10mi
Dew Point:   Wind: 5mph
Humidity: 27%   Direction: 160°SSE
Pressure: 30.14"   Gusts: NA
Location:  44.0478°N, 70.9547°W
Report Text: KIZG 291954Z AUTO 16004KT 10SM CLR 01/M16 A3014 RMK AO2 SLP219 T00111161
Loading
Personal Weather Stations






























Interactive Weather Map New forecast layout! Learn more

10-Day Weather Forecast

Advertisements
Track Severe Weather on mobile